Time;durP1;ratioP1;P1;durP2;ratioP2;P2;SDS_P1;SDS_P2;PMS_P1;PMS_P2;Temp;Humidity;BMP_temperature;BMP_pressure;BME280_temperature;BME280_humidity;BME280_pressure;Samples;Min_cycle;Max_cycle;Signal;HPM_P1;HPM_P2
2022/11/09 00:01:31;;;;;;;41.17;27.25;;;;;;;8.85;100.00;100954.03;5026040;28;20524;-66
2022/11/09 00:04:02;;;;;;;41.90;26.90;;;;;;;8.85;100.00;100958.50;5026027;28;20483;-65
2022/11/09 00:06:28;;;;;;;40.80;26.70;;;;;;;8.85;100.00;100953.16;5026046;28;20052;-66
2022/11/09 00:08:54;;;;;;;42.42;26.00;;;;;;;8.86;100.00;100960.22;5025602;28;20063;-66
2022/11/09 00:11:20;;;;;;;43.60;27.55;;;;;;;8.75;100.00;100946.75;5026319;28;20108;-66
2022/11/09 00:13:46;;;;;;;42.58;26.90;;;;;;;8.85;100.00;100955.84;5026057;28;20141;-66
2022/11/09 00:16:13;;;;;;;41.22;25.48;;;;;;;8.83;100.00;100955.09;5025812;28;20025;-66
2022/11/09 00:18:40;;;;;;;42.70;26.85;;;;;;;8.82;100.00;100958.72;5025840;28;20083;-66
2022/11/09 00:21:10;;;;;;;38.72;26.00;;;;;;;8.83;100.00;100955.94;5027611;28;20033;-66
2022/11/09 00:23:35;;;;;;;40.67;26.45;;;;;;;8.73;100.00;100943.31;5029846;28;20030;-66
2022/11/09 00:26:06;;;;;;;48.35;26.45;;;;;;;8.78;100.00;100958.06;5029888;28;20496;-66
2022/11/09 00:28:32;;;;;;;47.28;27.95;;;;;;;8.75;100.00;100955.66;5029556;28;20095;-70
2022/11/09 00:31:03;;;;;;;40.17;26.38;;;;;;;8.76;100.00;100959.16;5029536;28;20523;-67
2022/11/09 00:33:28;;;;;;;39.05;25.08;;;;;;;8.76;100.00;100957.34;5029394;28;20480;-66
2022/11/09 00:35:54;;;;;;;39.60;24.38;;;;;;;8.78;100.00;100954.56;5029445;28;20129;-66
2022/11/09 00:38:20;;;;;;;37.28;25.48;;;;;;;8.74;100.00;100958.44;5029580;28;20727;-70
2022/11/09 00:40:46;;;;;;;38.53;25.27;;;;;;;8.73;100.00;100962.91;5029216;28;20491;-65
2022/11/09 00:43:11;;;;;;;41.33;26.35;;;;;;;8.63;100.00;100947.59;5028172;28;20071;-66
2022/11/09 00:45:36;;;;;;;46.40;24.35;;;;;;;8.72;100.00;100958.53;5028028;28;20350;-66
2022/11/09 00:48:02;;;;;;;39.97;25.08;;;;;;;8.71;100.00;100954.13;5028031;28;20064;-66
2022/11/09 00:50:28;;;;;;;40.05;24.58;;;;;;;8.64;100.00;100944.00;5029530;28;20041;-66
2022/11/09 00:52:54;;;;;;;39.33;24.75;;;;;;;8.73;100.00;100967.41;5028748;28;20037;-65
2022/11/09 00:55:20;;;;;;;36.42;23.30;;;;;;;8.72;100.00;100960.34;5029086;28;20512;-67
2022/11/09 00:57:49;;;;;;;46.78;23.02;;;;;;;8.63;100.00;100948.47;5027618;28;20120;-65
2022/11/09 01:00:17;;;;;;;36.45;23.38;;;;;;;8.74;100.00;100955.75;5028865;28;20029;-66
2022/11/09 01:02:42;;;;;;;38.72;22.27;;;;;;;8.62;100.00;100946.78;5028572;28;20512;-65
2022/11/09 01:05:08;;;;;;;44.58;22.85;;;;;;;8.75;100.00;100971.69;5028929;28;20033;-65
2022/11/09 01:07:33;;;;;;;47.50;22.60;;;;;;;8.74;100.00;100961.09;5028914;28;20041;-65
2022/11/09 01:09:58;;;;;;;33.88;22.10;;;;;;;8.74;100.00;100967.28;5028905;28;20036;-65
2022/11/09 01:12:24;;;;;;;40.17;24.17;;;;;;;8.70;100.00;100954.22;5029088;28;20071;-66
2022/11/09 01:14:49;;;;;;;39.63;22.48;;;;;;;8.67;100.00;100963.34;5028728;28;20037;-71
2022/11/09 01:17:14;;;;;;;37.95;22.88;;;;;;;8.70;100.00;100960.44;5028574;28;20021;-71
2022/11/09 01:19:40;;;;;;;37.78;21.35;;;;;;;8.56;100.00;100936.50;5028163;28;20045;-70
2022/11/09 01:22:05;;;;;;;33.17;22.27;;;;;;;8.70;100.00;100948.88;5028982;28;20044;-71
2022/11/09 01:24:30;;;;;;;34.95;21.95;;;;;;;8.72;100.00;100944.28;5028936;28;20029;-71
2022/11/09 01:26:55;;;;;;;31.35;21.30;;;;;;;8.63;100.00;100934.25;5028351;28;20039;-71
2022/11/09 01:29:21;;;;;;;33.03;21.27;;;;;;;8.62;100.00;100929.88;5028408;28;20036;-66
2022/11/09 01:31:47;;;;;;;32.33;20.40;;;;;;;8.67;100.00;100938.41;5027979;28;20156;-64
2022/11/09 01:34:13;;;;;;;39.38;21.90;;;;;;;8.57;100.00;100916.81;5027899;28;20029;-65
2022/11/09 01:36:38;;;;;;;53.05;21.10;;;;;;;8.60;100.00;100926.44;5028348;28;20044;-66
2022/11/09 01:39:03;;;;;;;48.90;21.63;;;;;;;8.54;100.00;100922.38;5028086;28;20112;-66
2022/11/09 01:41:29;;;;;;;29.90;19.73;;;;;;;8.54;100.00;100919.69;5028273;28;20393;-66
2022/11/09 01:44:20;;;;;;;35.20;21.73;;;;;;;8.51;100.00;100913.69;5028391;28;20127;-65
2022/11/09 01:47:20;;;;;;;32.58;21.00;;;;;;;8.48;100.00;100913.94;5024722;28;20529;-66
2022/11/09 01:49:55;;;;;;;41.50;20.55;;;;;;;8.46;100.00;100918.53;5027827;28;20065;-65
2022/11/09 01:52:35;;;;;;;33.00;21.27;;;;;;;8.41;100.00;100904.63;5028261;28;20025;-66
2022/11/09 01:55:12;;;;;;;32.70;18.63;;;;;;;8.44;100.00;100915.09;5025361;28;20029;-66
2022/11/09 01:57:43;;;;;;;30.75;19.42;;;;;;;8.46;100.00;100921.19;5027914;28;20079;-65
2022/11/09 02:00:13;;;;;;;30.08;19.02;;;;;;;8.50;100.00;100922.69;5025896;28;20039;-65
2022/11/09 02:02:42;;;;;;;30.60;19.45;;;;;;;8.44;100.00;100923.13;5027766;28;20072;-72
2022/11/09 02:05:13;;;;;;;36.85;20.23;;;;;;;8.40;100.00;100922.50;5027695;28;20064;-70
2022/11/09 02:07:40;;;;;;;28.33;19.10;;;;;;;8.30;100.00;100902.72;5027155;28;20489;-71
2022/11/09 02:10:20;;;;;;;34.85;19.67;;;;;;;8.38;100.00;100916.38;5027881;28;20061;-70
2022/11/09 02:12:46;;;;;;;36.25;19.13;;;;;;;8.38;100.00;100908.34;5027676;28;20600;-71
2022/11/09 02:15:12;;;;;;;35.22;18.75;;;;;;;8.37;100.00;100916.47;5027519;28;20025;-70
2022/11/09 02:17:39;;;;;;;34.03;19.95;;;;;;;8.27;100.00;100897.56;5027486;28;20029;-70
2022/11/09 02:20:13;;;;;;;30.50;20.23;;;;;;;8.40;100.00;100909.13;5026498;28;20034;-70
2022/11/09 02:22:40;;;;;;;27.73;19.33;;;;;;;8.40;100.00;100910.94;5027311;28;20550;-70
2022/11/09 02:25:06;;;;;;;30.83;19.20;;;;;;;8.37;100.00;100904.00;5027660;28;20108;-71
2022/11/09 02:27:32;;;;;;;38.15;18.80;;;;;;;8.37;100.00;100908.47;5027833;28;20104;-71
2022/11/09 02:29:58;;;;;;;31.45;19.85;;;;;;;8.34;100.00;100909.53;5026995;28;20045;-71
2022/11/09 02:32:28;;;;;;;33.28;21.33;;;;;;;8.30;100.00;100896.50;5027033;28;20389;-71
2022/11/09 02:34:53;;;;;;;31.63;20.65;;;;;;;8.32;100.00;100897.25;5027500;28;20488;-70
2022/11/09 02:37:47;;;;;;;35.00;20.25;;;;;;;8.41;100.00;100901.94;5027134;28;20030;-71
2022/11/09 02:40:21;;;;;;;33.42;20.48;;;;;;;8.39;100.00;100907.38;5027147;28;20063;-71
2022/11/09 02:42:46;;;;;;;30.65;20.48;;;;;;;8.40;100.00;100900.25;5026896;28;20037;-71
2022/11/09 02:45:12;;;;;;;37.33;20.27;;;;;;;8.44;100.00;100899.06;5026108;28;20350;-71
2022/11/09 02:47:37;;;;;;;38.58;20.95;;;;;;;8.41;100.00;100901.94;5026965;28;20437;-71
2022/11/09 02:50:03;;;;;;;34.70;20.05;;;;;;;8.41;100.00;100901.94;5027145;28;20017;-71
2022/11/09 02:52:28;;;;;;;42.60;21.25;;;;;;;8.40;100.00;100906.44;5026842;28;20116;-71
2022/11/09 02:54:53;;;;;;;37.85;22.38;;;;;;;8.39;100.00;100896.69;5025942;28;20033;-65
2022/11/09 02:57:19;;;;;;;33.13;20.63;;;;;;;8.37;100.00;100903.13;5026335;28;20025;-66
2022/11/09 02:59:44;;;;;;;35.45;21.02;;;;;;;8.38;100.00;100905.69;5026847;28;20457;-66
2022/11/09 03:02:10;;;;;;;31.10;19.92;;;;;;;8.35;100.00;100897.03;5026700;28;20037;-65
2022/11/09 03:04:35;;;;;;;34.65;21.13;;;;;;;8.36;100.00;100896.06;5027075;28;20040;-66
2022/11/09 03:07:00;;;;;;;30.45;19.25;;;;;;;8.33;100.00;100897.16;5026484;28;20041;-65
2022/11/09 03:09:26;;;;;;;31.38;20.55;;;;;;;8.35;100.00;100897.03;5026408;28;20052;-66
2022/11/09 03:11:51;;;;;;;27.20;18.63;;;;;;;8.37;100.00;100897.78;5025860;28;20032;-65
2022/11/09 03:14:16;;;;;;;45.25;19.80;;;;;;;8.36;100.00;100896.94;5026398;28;20083;-65
2022/11/09 03:16:42;;;;;;;29.65;18.85;;;;;;;8.39;100.00;100890.53;5024659;28;20021;-65
2022/11/09 03:19:07;;;;;;;28.98;19.00;;;;;;;8.38;100.00;100895.00;5026856;28;20037;-65
2022/11/09 03:21:33;;;;;;;30.08;20.00;;;;;;;8.33;100.00;100883.78;5026038;28;20481;-66
2022/11/09 03:23:59;;;;;;;33.25;21.45;;;;;;;8.34;100.00;100887.28;5025528;28;20037;-65
2022/11/09 03:26:24;;;;;;;31.90;20.80;;;;;;;8.31;100.00;100883.03;5026394;28;20014;-66
2022/11/09 03:28:49;;;;;;;32.72;21.02;;;;;;;8.29;100.00;100876.91;5025919;28;20025;-65
2022/11/09 03:31:15;;;;;;;32.40;20.13;;;;;;;8.31;100.00;100874.16;5026567;28;20025;-66
2022/11/09 03:33:41;;;;;;;33.50;21.27;;;;;;;8.33;100.00;100882.94;5025860;28;20041;-66
2022/11/09 03:36:06;;;;;;;32.42;20.70;;;;;;;8.34;100.00;100877.47;5026485;28;20044;-65
2022/11/09 03:38:31;;;;;;;31.50;20.95;;;;;;;8.20;100.00;100855.31;5026422;28;20041;-66
2022/11/09 03:41:01;;;;;;;33.58;20.95;;;;;;;8.26;100.00;100869.13;5026026;28;20116;-65
2022/11/09 03:43:28;;;;;;;33.30;21.65;;;;;;;8.36;100.00;100886.25;5026018;28;20133;-70
2022/11/09 03:45:53;;;;;;;38.40;23.45;;;;;;;8.30;100.00;100869.78;5026510;28;20032;-70
2022/11/09 03:48:19;;;;;;;35.70;21.98;;;;;;;8.35;100.00;100878.34;5026301;28;20021;-71
2022/11/09 03:50:44;;;;;;;36.17;22.02;;;;;;;8.39;100.00;100887.84;5026340;28;20104;-70
2022/11/09 03:53:10;;;;;;;35.40;21.08;;;;;;;8.37;100.00;100882.59;5026397;28;20389;-70
2022/11/09 03:55:37;;;;;;;33.95;20.08;;;;;;;8.37;100.00;100879.06;5027153;28;20232;-70
2022/11/09 03:58:04;;;;;;;34.88;20.63;;;;;;;8.36;100.00;100885.38;5030001;28;20523;-70
2022/11/09 04:00:30;;;;;;;33.90;21.25;;;;;;;8.33;100.00;100881.13;5030424;28;20116;-70
2022/11/09 04:02:56;;;;;;;38.50;23.02;;;;;;;8.34;100.00;100881.94;5029858;28;20034;-70
2022/11/09 04:05:21;;;;;;;33.00;20.58;;;;;;;8.36;100.00;100880.91;5028450;28;20512;-70
2022/11/09 04:07:55;;;;;;;33.60;21.52;;;;;;;8.31;100.00;100868.81;5028632;28;20029;-71
2022/11/09 04:10:22;;;;;;;47.70;22.52;;;;;;;8.38;100.00;100876.28;5026143;28;20112;-71
2022/11/09 04:12:48;;;;;;;37.47;22.73;;;;;;;8.40;100.00;100882.41;5028895;28;20524;-70
2022/11/09 04:15:14;;;;;;;42.00;22.50;;;;;;;8.40;100.00;100876.19;5028940;28;20112;-70
2022/11/09 04:17:39;;;;;;;37.35;22.42;;;;;;;8.40;100.00;100870.84;5029492;28;20435;-69
2022/11/09 04:20:06;;;;;;;33.75;20.83;;;;;;;8.41;100.00;100872.53;5028598;28;20025;-69
2022/11/09 04:22:33;;;;;;;37.72;20.67;;;;;;;8.44;100.00;100873.19;5028878;28;20439;-71
2022/11/09 04:24:58;;;;;;;35.30;22.15;;;;;;;8.41;100.00;100862.72;5028778;28;20658;-71
2022/11/09 04:27:23;;;;;;;41.47;23.63;;;;;;;8.41;100.00;100864.53;5028239;28;20028;-68
2022/11/09 04:29:49;;;;;;;37.80;22.10;;;;;;;8.43;100.00;100875.97;5028641;28;20105;-69
2022/11/09 04:32:14;;;;;;;36.75;22.42;;;;;;;8.42;100.00;100863.56;5028492;28;20025;-70
2022/11/09 04:34:40;;;;;;;33.10;20.40;;;;;;;8.42;100.00;100861.75;5028604;28;20041;-70
2022/11/09 04:37:06;;;;;;;34.28;20.83;;;;;;;8.33;100.00;100850.84;5028864;28;20068;-70
2022/11/09 04:39:31;;;;;;;37.50;21.90;;;;;;;8.44;100.00;100858.97;5028031;28;20168;-70
2022/11/09 04:41:57;;;;;;;38.78;23.38;;;;;;;8.43;100.00;100860.81;5028021;28;20107;-70
2022/11/09 04:44:22;;;;;;;37.70;22.60;;;;;;;8.45;100.00;100858.84;5028730;28;20018;-70
2022/11/09 04:46:47;;;;;;;39.70;22.30;;;;;;;8.48;100.00;100868.50;5028206;28;20496;-70
2022/11/09 04:49:13;;;;;;;44.58;21.45;;;;;;;8.43;100.00;100850.09;5028428;28;20087;-70
2022/11/09 04:51:38;;;;;;;38.22;22.58;;;;;;;8.49;100.00;100864.84;5028383;28;20481;-70
2022/11/09 04:54:03;;;;;;;33.08;20.42;;;;;;;8.52;100.00;100869.97;5027826;28;20029;-70
2022/11/09 04:56:28;;;;;;;33.28;21.98;;;;;;;8.51;100.00;100862.91;5028522;28;20457;-70
2022/11/09 04:58:54;;;;;;;37.65;22.05;;;;;;;8.50;100.00;100859.41;5027856;28;20386;-70
2022/11/09 05:01:19;;;;;;;38.00;21.50;;;;;;;8.55;100.00;100872.44;5027850;28;20110;-70
2022/11/09 05:03:45;;;;;;;36.60;21.73;;;;;;;8.42;100.00;100856.41;5026732;28;20120;-71
2022/11/09 05:08:54;;;;;;;39.17;22.90;;;;;;;8.49;100.00;100868.41;5027031;28;20044;-70
2022/11/09 05:11:21;;;;;;;40.47;23.42;;;;;;;8.46;100.00;100865.94;5027703;28;20029;-71
2022/11/09 05:13:46;;;;;;;40.45;23.00;;;;;;;8.56;100.00;100880.34;5027801;28;20032;-70
2022/11/09 05:16:12;;;;;;;38.83;22.50;;;;;;;8.53;100.00;100880.56;5026242;28;20108;-70
2022/11/09 05:18:37;;;;;;;40.20;22.77;;;;;;;8.50;100.00;100877.25;5027628;28;20041;-71
2022/11/09 05:21:03;;;;;;;37.10;22.50;;;;;;;8.47;100.00;100864.97;5027672;28;20112;-70
2022/11/09 05:26:12;;;;;;;37.90;22.67;;;;;;;8.59;100.00;100895.31;5027480;28;20032;-69
2022/11/09 05:28:38;;;;;;;39.88;23.23;;;;;;;8.51;100.00;100882.50;5027537;28;20465;-70
2022/11/09 05:31:04;;;;;;;35.97;21.88;;;;;;;8.60;100.00;100894.34;5027373;28;20021;-68
2022/11/09 05:33:29;;;;;;;38.42;23.73;;;;;;;8.63;100.00;100907.50;5026981;28;20049;-71
2022/11/09 05:35:55;;;;;;;40.97;22.67;;;;;;;8.63;100.00;100904.81;5027207;28;20108;-70
2022/11/09 05:38:22;;;;;;;38.30;22.65;;;;;;;8.60;100.00;100897.03;5027959;28;20660;-70
2022/11/09 05:40:49;;;;;;;39.13;22.10;;;;;;;8.66;100.00;100909.97;5026805;28;20485;-71
2022/11/09 05:43:14;;;;;;;40.97;23.17;;;;;;;8.62;100.00;100901.31;5026832;28;20091;-70
2022/11/09 05:45:41;;;;;;;42.80;21.75;;;;;;;8.63;100.00;100911.03;5027938;28;20065;-71
2022/11/09 05:48:06;;;;;;;36.90;22.58;;;;;;;8.62;100.00;100912.00;5026740;28;20584;-70
2022/11/09 07:46:47;;;;;;;71.93;32.35;;;;;;;8.90;100.00;100898.38;5089625;27;20388;-72
2022/11/09 07:49:14;;;;;;;62.05;31.92;;;;;;;8.97;100.00;100912.19;5103764;28;20042;-72
2022/11/09 07:51:40;;;;;;;68.43;33.50;;;;;;;8.99;100.00;100907.56;5105428;28;20041;-71
2022/11/09 07:54:06;;;;;;;62.72;30.52;;;;;;;9.05;100.00;100904.44;5104841;28;20028;-71
2022/11/09 07:56:31;;;;;;;61.45;29.40;;;;;;;9.09;100.00;100901.44;5089177;28;20396;-72
2022/11/09 07:58:57;;;;;;;62.15;28.90;;;;;;;9.10;100.00;100903.13;5099974;28;20107;-72
2022/11/09 08:01:22;;;;;;;60.00;29.75;;;;;;;9.13;100.00;100902.06;5091957;28;20546;-73
2022/11/09 08:03:47;;;;;;;63.55;30.63;;;;;;;9.23;100.00;100898.59;5104630;28;20395;-72
2022/11/09 08:06:13;;;;;;;64.30;29.52;;;;;;;9.24;100.00;100903.00;5105704;28;20027;-71
2022/11/09 08:08:38;;;;;;;60.60;29.88;;;;;;;9.20;100.00;100892.63;5104103;28;20062;-72
2022/11/09 08:11:04;;;;;;;63.00;29.00;;;;;;;9.23;100.00;100897.75;5089051;28;20016;-72
2022/11/09 08:13:29;;;;;;;65.75;32.22;;;;;;;9.19;100.00;100891.75;5098189;28;20012;-72
2022/11/09 08:15:55;;;;;;;56.20;28.35;;;;;;;9.27;100.00;100896.56;5105769;28;20534;-72
2022/11/09 08:18:21;;;;;;;73.40;31.75;;;;;;;9.25;100.00;100893.13;5103860;28;20026;-71
2022/11/09 08:20:47;;;;;;;68.15;32.00;;;;;;;9.29;100.00;100887.44;5086766;28;20107;-72
2022/11/09 08:23:14;;;;;;;57.92;31.58;;;;;;;9.27;100.00;100885.88;5098741;28;20028;-71
2022/11/09 08:25:40;;;;;;;69.88;31.90;;;;;;;9.17;100.00;100866.09;5090627;28;20015;-72
2022/11/09 08:28:06;;;;;;;61.72;31.35;;;;;;;9.36;100.00;100890.53;5083522;28;20036;-72
2022/11/09 08:30:32;;;;;;;59.53;30.25;;;;;;;9.28;100.00;100876.84;5085823;28;20074;-72
2022/11/09 08:32:59;;;;;;;64.45;31.20;;;;;;;9.30;100.00;100880.28;5099231;28;20352;-72
2022/11/09 08:35:26;;;;;;;59.75;30.25;;;;;;;9.45;100.00;100892.56;5091730;28;20008;-72
2022/11/09 08:37:53;;;;;;;63.47;31.30;;;;;;;9.39;100.00;100887.66;5096778;28;20032;-72
2022/11/09 08:40:24;;;;;;;61.10;32.38;;;;;;;9.43;100.00;100897.16;5104686;28;20024;-72
2022/11/09 08:42:50;;;;;;;65.82;34.85;;;;;;;9.47;100.00;100892.41;5088370;28;20071;-73
2022/11/09 08:45:15;;;;;;;70.55;33.80;;;;;;;9.46;100.00;100883.53;5104308;28;20203;-73
2022/11/09 08:47:42;;;;;;;68.57;35.10;;;;;;;9.50;100.00;100881.47;5102468;28;20420;-71
2022/11/09 08:50:09;;;;;;;61.63;32.20;;;;;;;9.55;100.00;100876.63;5108685;28;20031;-72
2022/11/09 08:52:35;;;;;;;71.45;33.83;;;;;;;9.53;100.00;100882.09;5111879;28;20054;-72
2022/11/09 08:55:00;;;;;;;69.55;34.78;;;;;;;9.54;100.00;100882.97;5106921;27;20487;-72
2022/11/09 08:57:26;;;;;;;78.05;37.13;;;;;;;9.64;100.00;100892.84;5099849;28;20034;-73
2022/11/09 08:59:52;;;;;;;71.50;36.58;;;;;;;9.67;100.00;100886.44;5107497;28;20513;-72
2022/11/09 09:02:17;;;;;;;81.72;41.63;;;;;;;9.65;100.00;100878.53;5111248;28;20023;-73
2022/11/09 09:04:43;;;;;;;79.85;42.15;;;;;;;9.69;100.00;100880.00;5094678;28;20028;-71
2022/11/09 09:07:09;;;;;;;75.10;39.65;;;;;;;9.71;100.00;100877.19;5105052;27;20439;-71
2022/11/09 09:09:38;;;;;;;80.22;40.67;;;;;;;9.76;100.00;100877.69;5100372;28;20067;-72
2022/11/09 09:12:08;;;;;;;82.65;42.10;;;;;;;9.75;100.00;100878.66;5106348;28;20019;-71
2022/11/09 09:14:34;;;;;;;77.38;40.15;;;;;;;9.72;100.00;100876.22;5103861;27;20115;-72
2022/11/09 09:16:59;;;;;;;81.60;42.50;;;;;;;9.68;100.00;100867.59;5107975;27;20020;-73
2022/11/09 09:19:25;;;;;;;77.53;41.83;;;;;;;9.79;100.00;100875.66;5118778;27;20024;-73
2022/11/09 09:21:51;;;;;;;89.65;45.20;;;;;;;9.82;100.00;100878.09;5102504;27;20521;-73
2022/11/09 09:24:16;;;;;;;82.85;42.75;;;;;;;9.87;100.00;100886.63;5113767;27;20096;-72
2022/11/09 09:26:44;;;;;;;83.53;43.20;;;;;;;9.83;100.00;100874.44;5098862;28;20104;-72
2022/11/09 09:29:10;;;;;;;83.50;43.97;;;;;;;9.90;100.00;100885.56;5095270;28;20023;-73
2022/11/09 09:31:36;;;;;;;85.68;43.35;;;;;;;9.95;100.00;100892.28;5098048;27;20044;-73
2022/11/09 09:34:02;;;;;;;86.63;45.17;;;;;;;9.95;100.00;100883.38;5104087;28;20070;-72
2022/11/09 09:36:28;;;;;;;81.68;41.95;;;;;;;10.03;100.00;100880.97;5100410;28;20490;-73
2022/11/09 09:38:54;;;;;;;73.82;39.97;;;;;;;10.07;100.00;100887.81;5108565;28;20022;-73
2022/11/09 09:41:40;;;;;;;79.60;42.97;;;;;;;10.08;100.00;100878.81;5109790;28;20031;-73
2022/11/09 09:44:12;;;;;;;81.25;42.55;;;;;;;10.08;100.00;100879.66;5095541;28;20092;-73
2022/11/09 09:47:05;;;;;;;73.72;39.67;;;;;;;10.05;100.00;100876.31;5106385;28;20092;-67
2022/11/09 09:49:35;;;;;;;78.43;42.33;;;;;;;10.08;100.00;100868.09;5093733;28;20120;-67
2022/11/09 09:52:10;;;;;;;83.15;40.67;;;;;;;10.01;100.00;100856.09;5107681;28;20031;-67
2022/11/09 09:54:43;;;;;;;77.40;40.83;;;;;;;10.01;100.00;100842.69;5091082;28;20031;-67
2022/11/09 09:57:20;;;;;;;81.55;41.22;;;;;;;10.14;100.00;100867.63;5102012;28;20080;-67
2022/11/09 09:59:53;;;;;;;73.18;39.58;;;;;;;10.19;100.00;100871.66;5099553;28;20036;-66
2022/11/09 10:02:30;;;;;;;75.97;41.13;;;;;;;10.18;100.00;100869.94;5103599;28;20042;-66
2022/11/09 10:04:58;;;;;;;76.13;39.92;;;;;;;10.18;100.00;100855.69;5093336;28;20023;-66
2022/11/09 10:07:35;;;;;;;74.75;39.85;;;;;;;10.19;100.00;100860.91;5108510;28;20035;-65
2022/11/09 10:10:07;;;;;;;78.35;39.92;;;;;;;10.27;100.00;100861.19;5095774;28;20032;-65
2022/11/09 10:12:53;;;;;;;77.65;42.92;;;;;;;10.26;100.00;100862.19;5105910;28;20382;-67
2022/11/09 10:15:48;;;;;;;78.32;42.00;;;;;;;10.27;100.00;100854.97;5096736;28;20024;-66
2022/11/09 10:18:25;;;;;;;78.78;43.40;;;;;;;10.27;100.00;100852.28;5072670;28;20432;-71
2022/11/09 10:21:41;;;;;;;76.88;42.08;;;;;;;10.29;100.00;100847.69;5090843;28;20114;-72
2022/11/09 10:24:57;;;;;;;81.95;42.70;;;;;;;10.33;100.00;100841.97;5049317;28;20040;-71
2022/11/09 10:27:36;;;;;;;84.32;44.70;;;;;;;10.42;100.00;100846.56;5014097;28;20421;-72
2022/11/09 10:30:12;;;;;;;85.95;45.78;;;;;;;10.33;100.00;100830.38;5001910;28;20067;-72
2022/11/09 10:32:38;;;;;;;83.53;44.78;;;;;;;10.48;100.00;100850.63;5071661;28;20501;-73
2022/11/09 10:35:15;;;;;;;84.68;45.92;;;;;;;10.48;100.00;100845.25;5103537;28;20020;-72
2022/11/09 10:37:49;;;;;;;78.10;43.22;;;;;;;10.47;100.00;100844.41;5099181;28;20047;-72
2022/11/09 10:40:27;;;;;;;90.60;48.60;;;;;;;10.53;100.00;100849.28;5105348;28;20031;-72
2022/11/09 10:42:56;;;;;;;88.15;47.90;;;;;;;10.49;100.00;100838.91;5092594;28;20023;-72
2022/11/09 10:45:32;;;;;;;91.47;49.25;;;;;;;10.47;100.00;100825.63;5100643;28;20513;-72
2022/11/09 10:47:58;;;;;;;86.35;46.65;;;;;;;10.51;100.00;100845.84;5101394;28;20050;-72
2022/11/09 10:50:33;;;;;;;91.10;49.08;;;;;;;10.54;100.00;100840.25;5105385;28;20032;-72
2022/11/09 10:53:19;;;;;;;93.05;50.25;;;;;;;10.53;100.00;100835.00;5092674;28;20034;-72
2022/11/09 10:56:04;;;;;;;97.82;52.67;;;;;;;10.59;100.00;100838.06;5097106;28;20039;-72
2022/11/09 10:58:52;;;;;;;92.07;51.20;;;;;;;10.58;100.00;100817.56;5103767;28;20024;-72
2022/11/09 11:01:22;;;;;;;97.45;51.72;;;;;;;10.64;100.00;100830.50;5095489;28;20032;-72
2022/11/09 11:03:56;;;;;;;90.93;50.80;;;;;;;10.62;100.00;100820.88;5096813;28;20059;-72
2022/11/09 11:06:21;;;;;;;101.90;55.83;;;;;;;10.61;100.00;100814.63;5104618;28;20019;-72
2022/11/09 11:08:51;;;;;;;98.13;52.85;;;;;;;10.66;100.00;100815.13;5107937;28;20081;-72
2022/11/09 11:11:29;;;;;;;89.13;50.75;;;;;;;10.71;100.00;100809.41;5100114;28;20032;-72
2022/11/09 11:14:16;;;;;;;101.80;52.95;;;;;;;10.74;100.00;100804.63;5098807;28;20023;-72
2022/11/09 11:16:42;;;;;;;92.82;49.35;;;;;;;10.78;100.00;100805.25;5091850;28;20028;-72
2022/11/09 11:19:37;;;;;;;103.35;53.70;;;;;;;10.84;100.00;100808.28;5102057;28;20020;-67
2022/11/09 11:22:11;;;;;;;93.78;49.72;;;;;;;10.86;100.00;100813.50;5103407;28;20062;-67
2022/11/09 11:25:01;;;;;;;97.10;52.22;;;;;;;10.80;100.00;100806.81;5091219;28;20025;-68
2022/11/09 11:27:39;;;;;;;94.25;52.80;;;;;;;10.91;100.00;100808.63;5086506;28;20414;-68
2022/11/09 11:30:09;;;;;;;98.10;51.85;;;;;;;10.94;100.00;100800.34;5093837;28;20402;-68
2022/11/09 11:32:35;;;;;;;91.30;50.65;;;;;;;10.99;100.00;100809.72;5099501;28;20023;-67
2022/11/09 11:35:04;;;;;;;89.50;50.03;;;;;;;10.91;100.00;100790.72;5097896;28;20413;-68
2022/11/09 11:38:02;;;;;;;94.07;50.95;;;;;;;11.07;100.00;100812.59;5098190;28;20027;-68
2022/11/09 11:40:58;;;;;;;95.60;50.45;;;;;;;11.13;100.00;100801.38;5094398;28;20043;-67
2022/11/09 11:43:27;;;;;;;94.90;52.03;;;;;;;11.19;100.00;100800.88;5055336;28;20128;-67
2022/11/09 11:46:10;;;;;;;94.97;52.17;;;;;;;11.17;100.00;100792.09;5095620;28;20048;-66
2022/11/09 11:48:58;;;;;;;97.03;52.22;;;;;;;11.25;100.00;100786.94;5103349;28;20471;-67
2022/11/09 11:51:32;;;;;;;90.32;50.90;;;;;;;11.29;100.00;100777.63;5094058;28;20074;-66
2022/11/09 11:54:40;;;;;;;87.60;51.83;;;;;;;11.27;100.00;100774.25;5093230;28;20052;-68
2022/11/09 11:57:25;;;;;;;92.60;52.97;;;;;;;11.31;100.00;100777.50;5089535;28;20403;-66
2022/11/09 12:00:16;;;;;;;93.18;53.53;;;;;;;11.33;100.00;100771.06;5105811;28;20058;-66
2022/11/09 12:03:00;;;;;;;91.45;52.13;;;;;;;11.31;100.00;100786.44;5080028;28;20114;-68
2022/11/09 12:06:11;;;;;;;95.03;56.53;;;;;;;11.31;100.00;100793.63;5096298;28;20514;-67
2022/11/09 12:08:48;;;;;;;106.53;60.60;;;;;;;11.34;100.00;100786.19;5068910;28;20401;-66
2022/11/09 12:11:32;;;;;;;92.70;51.92;;;;;;;11.38;100.00;100784.94;5104434;28;20020;-67
2022/11/09 12:14:31;;;;;;;94.13;52.00;;;;;;;11.33;100.00;100776.44;5106284;28;20085;-66
2022/11/09 12:17:11;;;;;;;91.28;52.33;;;;;;;11.35;100.00;100770.91;5089431;28;20092;-65
2022/11/09 12:19:49;;;;;;;98.15;55.03;;;;;;;11.44;100.00;100779.06;5095853;28;20035;-66
2022/11/09 12:22:31;;;;;;;92.25;53.95;;;;;;;11.41;100.00;100775.75;5107546;28;20570;-66
2022/11/09 12:25:15;;;;;;;95.45;56.50;;;;;;;11.36;100.00;100754.66;5092744;28;20092;-66
2022/11/09 12:27:43;;;;;;;110.23;61.30;;;;;;;11.42;100.00;100764.06;5109451;28;20052;-67
2022/11/09 12:30:20;;;;;;;103.68;61.70;;;;;;;11.42;100.00;100758.69;5096485;28;20771;-66
2022/11/09 12:32:52;;;;;;;103.10;61.25;;;;;;;11.46;100.00;100771.72;5108567;28;20426;-66
2022/11/09 12:35:42;;;;;;;103.75;59.88;;;;;;;11.48;100.00;100772.44;5109487;28;20092;-66
2022/11/09 12:38:18;;;;;;;106.90;61.88;;;;;;;11.42;100.00;100772.13;5109578;28;20051;-66
2022/11/09 12:40:57;;;;;;;108.20;63.88;;;;;;;11.46;100.00;100782.47;5105259;28;20379;-65
2022/11/09 12:43:33;;;;;;;115.15;67.72;;;;;;;11.52;100.00;100767.66;5101462;28;20491;-66
2022/11/09 12:46:03;;;;;;;114.18;68.18;;;;;;;11.53;100.00;100761.31;5097821;28;20043;-65
2022/11/09 12:48:34;;;;;;;107.78;63.33;;;;;;;11.45;100.00;100753.88;5109569;28;20107;-65
2022/11/09 12:51:02;;;;;;;117.68;68.00;;;;;;;11.47;100.00;100751.94;5107714;28;20100;-66
2022/11/09 12:53:32;;;;;;;106.90;66.43;;;;;;;11.60;100.00;100777.78;5107432;28;20023;-66
2022/11/09 12:56:00;;;;;;;111.90;66.05;;;;;;;11.59;100.00;100768.84;5108681;28;20398;-66
2022/11/09 12:58:29;;;;;;;108.70;63.95;;;;;;;11.58;100.00;100764.47;5109231;28;20028;-66
2022/11/09 13:01:02;;;;;;;103.63;60.75;;;;;;;11.57;100.00;100757.38;5091371;28;20039;-66
2022/11/09 13:03:37;;;;;;;108.25;62.67;;;;;;;11.59;100.00;100752.72;5100689;28;20047;-66
2022/11/09 13:06:18;;;;;;;103.80;59.95;;;;;;;11.54;100.00;100747.75;5102469;28;20084;-66
2022/11/09 13:09:05;;;;;;;103.25;60.90;;;;;;;11.57;100.00;100753.84;5102988;28;20027;-66
2022/11/09 13:11:46;;;;;;;96.88;58.47;;;;;;;11.57;100.00;100742.13;5101680;28;20077;-65
2022/11/09 13:14:21;;;;;;;94.15;58.33;;;;;;;11.62;100.00;100746.28;5102364;28;20027;-71
2022/11/09 13:16:48;;;;;;;106.53;62.95;;;;;;;11.60;100.00;100740.16;5106449;28;20058;-66
2022/11/09 13:19:33;;;;;;;104.40;61.92;;;;;;;11.66;100.00;100740.50;5102958;28;20494;-71
2022/11/09 13:22:22;;;;;;;102.15;61.38;;;;;;;11.63;100.00;100730.03;5094395;28;20059;-72
2022/11/09 13:24:58;;;;;;;111.38;65.95;;;;;;;11.68;100.00;100732.31;5107896;28;20573;-71